sensor_id;sensor_type;location;lat;lon;timestamp;P1;durP1;ratioP1;P2;durP2;ratioP2
64018;SDS011;66942;52.138;5.216;2023-05-27T00:00:08;17.2;;;7.0;;
64018;SDS011;66942;52.138;5.216;2023-05-27T00:03:21;16.5;;;7.2;;
64018;SDS011;66942;52.138;5.216;2023-05-27T00:04:58;20.41;;;7.2;;
64018;SDS011;66942;52.138;5.216;2023-05-27T00:06:34;15.7;;;7.7;;
64018;SDS011;66942;52.138;5.216;2023-05-27T00:08:10;17.41;;;7.2;;
64018;SDS011;66942;52.138;5.216;2023-05-27T00:11:22;15.7;;;7.2;;
64018;SDS011;66942;52.138;5.216;2023-05-27T00:12:59;14.3;;;6.5;;
64018;SDS011;66942;52.138;5.216;2023-05-27T00:14:35;18.41;;;6.8;;
64018;SDS011;66942;52.138;5.216;2023-05-27T00:17:48;16.4;;;6.7;;
64018;SDS011;66942;52.138;5.216;2023-05-27T00:19:24;18.11;;;7.6;;
64018;SDS011;66942;52.138;5.216;2023-05-27T00:21:00;18.2;;;6.6;;
64018;SDS011;66942;52.138;5.216;2023-05-27T00:24:12;16.2;;;7.0;;
64018;SDS011;66942;52.138;5.216;2023-05-27T00:25:49;13.1;;;6.1;;
64018;SDS011;66942;52.138;5.216;2023-05-27T00:27:25;15.7;;;7.1;;
64018;SDS011;66942;52.138;5.216;2023-05-27T00:29:01;15.6;;;6.5;;
64018;SDS011;66942;52.138;5.216;2023-05-27T00:32:13;13.8;;;6.4;;
64018;SDS011;66942;52.138;5.216;2023-05-27T00:33:49;19.11;;;6.9;;
64018;SDS011;66942;52.138;5.216;2023-05-27T00:35:26;13.7;;;6.5;;
64018;SDS011;66942;52.138;5.216;2023-05-27T00:38:40;18.61;;;7.6;;
64018;SDS011;66942;52.138;5.216;2023-05-27T00:40:18;19.11;;;7.2;;
64018;SDS011;66942;52.138;5.216;2023-05-27T00:41:57;16.2;;;6.8;;
64018;SDS011;66942;52.138;5.216;2023-05-27T00:45:10;17.8;;;7.2;;
64018;SDS011;66942;52.138;5.216;2023-05-27T00:46:48;16.5;;;7.5;;
64018;SDS011;66942;52.138;5.216;2023-05-27T00:48:24;14.8;;;6.8;;
64018;SDS011;66942;52.138;5.216;2023-05-27T00:50:02;14.8;;;7.2;;
64018;SDS011;66942;52.138;5.216;2023-05-27T00:53:15;14.4;;;7.1;;
64018;SDS011;66942;52.138;5.216;2023-05-27T00:54:52;14.5;;;6.8;;
64018;SDS011;66942;52.138;5.216;2023-05-27T00:56:29;18.8;;;7.3;;
64018;SDS011;66942;52.138;5.216;2023-05-27T00:59:41;17.0;;;7.0;;
64018;SDS011;66942;52.138;5.216;2023-05-27T01:01:17;12.1;;;6.2;;
64018;SDS011;66942;52.138;5.216;2023-05-27T01:02:53;20.3;;;7.5;;
64018;SDS011;66942;52.138;5.216;2023-05-27T01:06:08;14.4;;;6.8;;
64018;SDS011;66942;52.138;5.216;2023-05-27T01:08:03;14.6;;;7.5;;
64018;SDS011;66942;52.138;5.216;2023-05-27T01:09:51;17.91;;;7.3;;
64018;SDS011;66942;52.138;5.216;2023-05-27T01:11:43;13.8;;;7.4;;
64018;SDS011;66942;52.138;5.216;2023-05-27T01:13:29;15.2;;;6.8;;
64018;SDS011;66942;52.138;5.216;2023-05-27T01:15:10;17.7;;;7.0;;
64018;SDS011;66942;52.138;5.216;2023-05-27T01:18:27;15.4;;;7.2;;
64018;SDS011;66942;52.138;5.216;2023-05-27T01:20:06;16.9;;;7.4;;
64018;SDS011;66942;52.138;5.216;2023-05-27T01:21:45;17.41;;;7.7;;
64018;SDS011;66942;52.138;5.216;2023-05-27T01:25:00;16.2;;;7.5;;
64018;SDS011;66942;52.138;5.216;2023-05-27T01:26:36;18.3;;;7.4;;
64018;SDS011;66942;52.138;5.216;2023-05-27T01:28:12;17.0;;;7.5;;
64018;SDS011;66942;52.138;5.216;2023-05-27T01:29:49;17.0;;;7.5;;
64018;SDS011;66942;52.138;5.216;2023-05-27T01:33:12;16.0;;;6.7;;
64018;SDS011;66942;52.138;5.216;2023-05-27T01:34:57;16.4;;;7.1;;
64018;SDS011;66942;52.138;5.216;2023-05-27T01:36:38;20.8;;;8.1;;
64018;SDS011;66942;52.138;5.216;2023-05-27T01:38:21;15.3;;;7.2;;
64018;SDS011;66942;52.138;5.216;2023-05-27T01:41:38;16.11;;;7.0;;
64018;SDS011;66942;52.138;5.216;2023-05-27T01:43:17;16.3;;;7.1;;
64018;SDS011;66942;52.138;5.216;2023-05-27T01:44:55;17.11;;;7.6;;
64018;SDS011;66942;52.138;5.216;2023-05-27T01:46:32;16.3;;;7.0;;
64018;SDS011;66942;52.138;5.216;2023-05-27T01:49:44;17.61;;;7.1;;
64018;SDS011;66942;52.138;5.216;2023-05-27T01:51:21;14.7;;;7.2;;
64018;SDS011;66942;52.138;5.216;2023-05-27T01:52:57;18.2;;;7.2;;
64018;SDS011;66942;52.138;5.216;2023-05-27T01:56:09;16.4;;;7.7;;
64018;SDS011;66942;52.138;5.216;2023-05-27T01:57:45;21.0;;;7.9;;
64018;SDS011;66942;52.138;5.216;2023-05-27T01:59:21;14.8;;;6.8;;
64018;SDS011;66942;52.138;5.216;2023-05-27T02:02:34;16.11;;;7.5;;
64018;SDS011;66942;52.138;5.216;2023-05-27T02:04:10;15.6;;;7.6;;
64018;SDS011;66942;52.138;5.216;2023-05-27T02:05:46;18.11;;;8.0;;
64018;SDS011;66942;52.138;5.216;2023-05-27T02:07:22;16.4;;;7.4;;
64018;SDS011;66942;52.138;5.216;2023-05-27T02:10:35;17.7;;;7.6;;
64018;SDS011;66942;52.138;5.216;2023-05-27T02:12:11;16.0;;;7.7;;
64018;SDS011;66942;52.138;5.216;2023-05-27T02:13:47;24.0;;;7.8;;
64018;SDS011;66942;52.138;5.216;2023-05-27T02:16:59;19.2;;;7.8;;
64018;SDS011;66942;52.138;5.216;2023-05-27T02:18:35;17.41;;;7.7;;
64018;SDS011;66942;52.138;5.216;2023-05-27T02:20:11;15.0;;;7.3;;
64018;SDS011;66942;52.138;5.216;2023-05-27T02:23:24;13.4;;;7.3;;
64018;SDS011;66942;52.138;5.216;2023-05-27T02:25:00;19.5;;;8.1;;
64018;SDS011;66942;52.138;5.216;2023-05-27T02:26:36;19.41;;;8.2;;
64018;SDS011;66942;52.138;5.216;2023-05-27T02:29:48;14.7;;;6.6;;
64018;SDS011;66942;52.138;5.216;2023-05-27T02:31:24;12.9;;;6.3;;
64018;SDS011;66942;52.138;5.216;2023-05-27T02:33:01;19.5;;;7.7;;
64018;SDS011;66942;52.138;5.216;2023-05-27T02:34:37;17.5;;;8.0;;
64018;SDS011;66942;52.138;5.216;2023-05-27T02:37:49;16.2;;;6.5;;
64018;SDS011;66942;52.138;5.216;2023-05-27T02:39:25;17.8;;;7.3;;
64018;SDS011;66942;52.138;5.216;2023-05-27T02:41:01;18.61;;;7.3;;
64018;SDS011;66942;52.138;5.216;2023-05-27T02:44:14;20.0;;;6.9;;
64018;SDS011;66942;52.138;5.216;2023-05-27T02:45:50;18.61;;;7.6;;
64018;SDS011;66942;52.138;5.216;2023-05-27T02:47:26;17.3;;;7.6;;
64018;SDS011;66942;52.138;5.216;2023-05-27T02:50:38;16.2;;;7.1;;
64018;SDS011;66942;52.138;5.216;2023-05-27T02:52:15;18.61;;;7.3;;
64018;SDS011;66942;52.138;5.216;2023-05-27T02:53:51;16.7;;;7.6;;
64018;SDS011;66942;52.138;5.216;2023-05-27T02:57:03;15.8;;;7.4;;
64018;SDS011;66942;52.138;5.216;2023-05-27T02:58:39;17.91;;;7.8;;
64018;SDS011;66942;52.138;5.216;2023-05-27T03:00:16;20.5;;;8.0;;
64018;SDS011;66942;52.138;5.216;2023-05-27T03:01:52;17.8;;;7.4;;
64018;SDS011;66942;52.138;5.216;2023-05-27T03:05:05;18.3;;;7.2;;
64018;SDS011;66942;52.138;5.216;2023-05-27T03:06:42;15.7;;;7.1;;
64018;SDS011;66942;52.138;5.216;2023-05-27T03:08:18;16.9;;;7.5;;
64018;SDS011;66942;52.138;5.216;2023-05-27T03:11:30;18.8;;;8.6;;
64018;SDS011;66942;52.138;5.216;2023-05-27T03:13:06;18.5;;;7.0;;
64018;SDS011;66942;52.138;5.216;2023-05-27T03:14:43;17.3;;;8.0;;
64018;SDS011;66942;52.138;5.216;2023-05-27T03:17:55;20.3;;;8.1;;
64018;SDS011;66942;52.138;5.216;2023-05-27T03:19:32;19.3;;;7.6;;
64018;SDS011;66942;52.138;5.216;2023-05-27T03:21:08;19.11;;;8.71;;
64018;SDS011;66942;52.138;5.216;2023-05-27T03:22:44;17.0;;;7.7;;
64018;SDS011;66942;52.138;5.216;2023-05-27T03:25:57;16.3;;;7.8;;
64018;SDS011;66942;52.138;5.216;2023-05-27T03:27:33;17.0;;;7.3;;
64018;SDS011;66942;52.138;5.216;2023-05-27T03:29:09;16.9;;;7.6;;
64018;SDS011;66942;52.138;5.216;2023-05-27T03:32:21;18.41;;;8.0;;
64018;SDS011;66942;52.138;5.216;2023-05-27T03:33:57;17.91;;;7.5;;
64018;SDS011;66942;52.138;5.216;2023-05-27T03:35:34;20.5;;;8.1;;
64018;SDS011;66942;52.138;5.216;2023-05-27T03:38:46;16.2;;;7.4;;
64018;SDS011;66942;52.138;5.216;2023-05-27T03:40:22;18.3;;;7.5;;
64018;SDS011;66942;52.138;5.216;2023-05-27T03:41:58;19.61;;;8.1;;
64018;SDS011;66942;52.138;5.216;2023-05-27T03:43:34;16.5;;;7.4;;
64018;SDS011;66942;52.138;5.216;2023-05-27T03:46:47;16.2;;;7.2;;
64018;SDS011;66942;52.138;5.216;2023-05-27T03:48:23;19.11;;;8.5;;
64018;SDS011;66942;52.138;5.216;2023-05-27T03:49:59;16.7;;;7.2;;
64018;SDS011;66942;52.138;5.216;2023-05-27T03:53:12;19.5;;;7.5;;
64018;SDS011;66942;52.138;5.216;2023-05-27T03:54:48;21.4;;;8.4;;
64018;SDS011;66942;52.138;5.216;2023-05-27T03:56:24;20.41;;;7.7;;
64018;SDS011;66942;52.138;5.216;2023-05-27T03:59:36;18.7;;;7.3;;
64018;SDS011;66942;52.138;5.216;2023-05-27T04:01:12;20.2;;;8.4;;
64018;SDS011;66942;52.138;5.216;2023-05-27T04:02:48;16.61;;;7.6;;
64018;SDS011;66942;52.138;5.216;2023-05-27T04:06:01;19.61;;;7.9;;
64018;SDS011;66942;52.138;5.216;2023-05-27T04:07:37;19.2;;;7.5;;
64018;SDS011;66942;52.138;5.216;2023-05-27T04:09:13;15.6;;;7.3;;
64018;SDS011;66942;52.138;5.216;2023-05-27T04:10:49;21.2;;;7.7;;
64018;SDS011;66942;52.138;5.216;2023-05-27T04:14:01;21.3;;;7.9;;
64018;SDS011;66942;52.138;5.216;2023-05-27T04:15:38;19.91;;;8.31;;
64018;SDS011;66942;52.138;5.216;2023-05-27T04:17:14;16.3;;;7.6;;
64018;SDS011;66942;52.138;5.216;2023-05-27T04:20:33;19.7;;;7.9;;
64018;SDS011;66942;52.138;5.216;2023-05-27T04:22:10;15.0;;;7.2;;
64018;SDS011;66942;52.138;5.216;2023-05-27T04:23:46;17.7;;;7.7;;
64018;SDS011;66942;52.138;5.216;2023-05-27T04:26:59;18.61;;;7.0;;
64018;SDS011;66942;52.138;5.216;2023-05-27T04:28:35;18.41;;;7.3;;
64018;SDS011;66942;52.138;5.216;2023-05-27T04:30:11;20.3;;;7.5;;
64018;SDS011;66942;52.138;5.216;2023-05-27T04:31:47;16.0;;;7.1;;
64018;SDS011;66942;52.138;5.216;2023-05-27T04:34:59;20.8;;;8.0;;
64018;SDS011;66942;52.138;5.216;2023-05-27T04:36:35;22.2;;;8.31;;
64018;SDS011;66942;52.138;5.216;2023-05-27T04:38:12;18.0;;;7.5;;
64018;SDS011;66942;52.138;5.216;2023-05-27T04:41:24;20.6;;;8.5;;
64018;SDS011;66942;52.138;5.216;2023-05-27T04:43:00;19.8;;;8.1;;
64018;SDS011;66942;52.138;5.216;2023-05-27T04:44:36;18.91;;;7.1;;
64018;SDS011;66942;52.138;5.216;2023-05-27T04:47:48;18.2;;;7.2;;
64018;SDS011;66942;52.138;5.216;2023-05-27T04:49:25;17.91;;;7.6;;
64018;SDS011;66942;52.138;5.216;2023-05-27T04:51:02;18.2;;;7.4;;
64018;SDS011;66942;52.138;5.216;2023-05-27T04:52:38;14.9;;;7.3;;
64018;SDS011;66942;52.138;5.216;2023-05-27T04:55:50;16.0;;;7.6;;
64018;SDS011;66942;52.138;5.216;2023-05-27T04:57:26;14.1;;;7.0;;
64018;SDS011;66942;52.138;5.216;2023-05-27T04:59:03;15.5;;;7.1;;
64018;SDS011;66942;52.138;5.216;2023-05-27T05:02:15;17.8;;;7.9;;
64018;SDS011;66942;52.138;5.216;2023-05-27T05:03:51;17.91;;;7.4;;
64018;SDS011;66942;52.138;5.216;2023-05-27T05:05:27;17.41;;;7.4;;
64018;SDS011;66942;52.138;5.216;2023-05-27T05:08:39;18.5;;;7.7;;
64018;SDS011;66942;52.138;5.216;2023-05-27T05:10:16;15.1;;;7.0;;
64018;SDS011;66942;52.138;5.216;2023-05-27T05:11:52;15.9;;;7.2;;
64018;SDS011;66942;52.138;5.216;2023-05-27T05:15:05;13.5;;;6.9;;
64018;SDS011;66942;52.138;5.216;2023-05-27T05:16:41;17.8;;;8.2;;
64018;SDS011;66942;52.138;5.216;2023-05-27T05:18:17;17.5;;;7.8;;
64018;SDS011;66942;52.138;5.216;2023-05-27T05:19:54;18.8;;;7.9;;
64018;SDS011;66942;52.138;5.216;2023-05-27T05:23:07;16.3;;;7.9;;
64018;SDS011;66942;52.138;5.216;2023-05-27T05:24:43;16.3;;;7.8;;
64018;SDS011;66942;52.138;5.216;2023-05-27T05:26:19;16.61;;;6.9;;
64018;SDS011;66942;52.138;5.216;2023-05-27T05:29:32;17.0;;;7.6;;
64018;SDS011;66942;52.138;5.216;2023-05-27T05:31:08;17.3;;;7.8;;
64018;SDS011;66942;52.138;5.216;2023-05-27T05:32:44;18.91;;;8.2;;
64018;SDS011;66942;52.138;5.216;2023-05-27T05:35:56;17.7;;;8.2;;
64018;SDS011;66942;52.138;5.216;2023-05-27T05:37:32;18.2;;;7.4;;
64018;SDS011;66942;52.138;5.216;2023-05-27T05:39:08;19.41;;;7.7;;
64018;SDS011;66942;52.138;5.216;2023-05-27T05:40:45;17.61;;;7.8;;
64018;SDS011;66942;52.138;5.216;2023-05-27T05:43:57;16.61;;;7.9;;
64018;SDS011;66942;52.138;5.216;2023-05-27T05:45:33;18.3;;;8.5;;
64018;SDS011;66942;52.138;5.216;2023-05-27T05:47:09;17.0;;;7.6;;
64018;SDS011;66942;52.138;5.216;2023-05-27T05:50:22;17.41;;;7.7;;
64018;SDS011;66942;52.138;5.216;2023-05-27T05:51:58;17.91;;;7.7;;
64018;SDS011;66942;52.138;5.216;2023-05-27T05:53:34;17.3;;;7.9;;
64018;SDS011;66942;52.138;5.216;2023-05-27T05:56:46;20.11;;;8.31;;
64018;SDS011;66942;52.138;5.216;2023-05-27T05:58:22;13.5;;;7.1;;
64018;SDS011;66942;52.138;5.216;2023-05-27T05:59:59;19.8;;;7.6;;
64018;SDS011;66942;52.138;5.216;2023-05-27T06:03:11;20.5;;;7.5;;
64018;SDS011;66942;52.138;5.216;2023-05-27T06:04:47;14.8;;;7.2;;
64018;SDS011;66942;52.138;5.216;2023-05-27T06:06:23;17.2;;;7.1;;
64018;SDS011;66942;52.138;5.216;2023-05-27T06:07:59;16.4;;;7.3;;
64018;SDS011;66942;52.138;5.216;2023-05-27T06:11:12;16.8;;;7.2;;
64018;SDS011;66942;52.138;5.216;2023-05-27T06:12:48;15.6;;;7.0;;
64018;SDS011;66942;52.138;5.216;2023-05-27T06:14:24;19.5;;;7.9;;
64018;SDS011;66942;52.138;5.216;2023-05-27T06:17:36;15.0;;;6.8;;
64018;SDS011;66942;52.138;5.216;2023-05-27T06:19:13;16.0;;;7.0;;
64018;SDS011;66942;52.138;5.216;2023-05-27T06:20:49;19.91;;;7.5;;
64018;SDS011;66942;52.138;5.216;2023-05-27T06:24:01;16.8;;;6.6;;
64018;SDS011;66942;52.138;5.216;2023-05-27T06:25:37;16.7;;;6.9;;
64018;SDS011;66942;52.138;5.216;2023-05-27T06:27:13;16.7;;;6.9;;
64018;SDS011;66942;52.138;5.216;2023-05-27T06:30:26;19.8;;;7.3;;
64018;SDS011;66942;52.138;5.216;2023-05-27T06:32:02;17.5;;;7.5;;
64018;SDS011;66942;52.138;5.216;2023-05-27T06:33:38;18.8;;;8.0;;
64018;SDS011;66942;52.138;5.216;2023-05-27T06:35:16;18.3;;;6.9;;
64018;SDS011;66942;52.138;5.216;2023-05-27T06:38:29;20.0;;;7.8;;
64018;SDS011;66942;52.138;5.216;2023-05-27T06:40:05;16.0;;;7.3;;
64018;SDS011;66942;52.138;5.216;2023-05-27T06:41:42;16.11;;;6.9;;
64018;SDS011;66942;52.138;5.216;2023-05-27T06:44:54;19.0;;;7.5;;
64018;SDS011;66942;52.138;5.216;2023-05-27T06:46:30;19.2;;;7.6;;
64018;SDS011;66942;52.138;5.216;2023-05-27T06:48:07;17.41;;;7.7;;
64018;SDS011;66942;52.138;5.216;2023-05-27T06:51:20;17.11;;;7.2;;
64018;SDS011;66942;52.138;5.216;2023-05-27T06:52:56;18.11;;;7.6;;
64018;SDS011;66942;52.138;5.216;2023-05-27T06:54:32;16.61;;;7.1;;
64018;SDS011;66942;52.138;5.216;2023-05-27T06:56:08;19.8;;;7.6;;
64018;SDS011;66942;52.138;5.216;2023-05-27T06:59:21;16.8;;;7.0;;
64018;SDS011;66942;52.138;5.216;2023-05-27T07:00:57;18.8;;;7.2;;
64018;SDS011;66942;52.138;5.216;2023-05-27T07:02:33;18.7;;;7.3;;
64018;SDS011;66942;52.138;5.216;2023-05-27T07:05:45;17.7;;;6.7;;
64018;SDS011;66942;52.138;5.216;2023-05-27T07:07:21;17.8;;;7.2;;
64018;SDS011;66942;52.138;5.216;2023-05-27T07:08:57;15.2;;;7.3;;
64018;SDS011;66942;52.138;5.216;2023-05-27T07:12:09;15.6;;;6.9;;
64018;SDS011;66942;52.138;5.216;2023-05-27T07:13:46;14.5;;;7.0;;
64018;SDS011;66942;52.138;5.216;2023-05-27T07:15:23;16.11;;;6.8;;
64018;SDS011;66942;52.138;5.216;2023-05-27T07:17:01;14.4;;;7.0;;
64018;SDS011;66942;52.138;5.216;2023-05-27T07:20:13;17.7;;;6.9;;
64018;SDS011;66942;52.138;5.216;2023-05-27T07:21:49;14.3;;;6.8;;
64018;SDS011;66942;52.138;5.216;2023-05-27T07:23:25;13.1;;;6.2;;
64018;SDS011;66942;52.138;5.216;2023-05-27T07:26:38;16.7;;;6.7;;
64018;SDS011;66942;52.138;5.216;2023-05-27T07:28:14;16.5;;;7.1;;
64018;SDS011;66942;52.138;5.216;2023-05-27T07:29:51;17.7;;;6.9;;
64018;SDS011;66942;52.138;5.216;2023-05-27T07:33:04;15.1;;;6.8;;
64018;SDS011;66942;52.138;5.216;2023-05-27T07:34:40;16.5;;;6.8;;
64018;SDS011;66942;52.138;5.216;2023-05-27T07:36:17;15.6;;;6.5;;
64018;SDS011;66942;52.138;5.216;2023-05-27T07:37:53;15.2;;;6.8;;
64018;SDS011;66942;52.138;5.216;2023-05-27T07:41:05;15.0;;;6.7;;
64018;SDS011;66942;52.138;5.216;2023-05-27T07:42:41;17.61;;;7.7;;
64018;SDS011;66942;52.138;5.216;2023-05-27T07:44:17;14.9;;;6.6;;
64018;SDS011;66942;52.138;5.216;2023-05-27T07:47:30;13.6;;;6.9;;
64018;SDS011;66942;52.138;5.216;2023-05-27T07:49:06;15.6;;;6.8;;
64018;SDS011;66942;52.138;5.216;2023-05-27T07:50:42;18.8;;;7.1;;
64018;SDS011;66942;52.138;5.216;2023-05-27T07:53:54;14.9;;;6.8;;
64018;SDS011;66942;52.138;5.216;2023-05-27T07:55:31;20.0;;;7.5;;
64018;SDS011;66942;52.138;5.216;2023-05-27T07:57:07;16.7;;;6.4;;
64018;SDS011;66942;52.138;5.216;2023-05-27T08:00:19;16.5;;;6.7;;
64018;SDS011;66942;52.138;5.216;2023-05-27T08:01:55;15.6;;;6.8;;
64018;SDS011;66942;52.138;5.216;2023-05-27T08:03:31;17.3;;;6.9;;
64018;SDS011;66942;52.138;5.216;2023-05-27T08:05:08;15.2;;;6.3;;
64018;SDS011;66942;52.138;5.216;2023-05-27T08:08:21;20.8;;;7.6;;
64018;SDS011;66942;52.138;5.216;2023-05-27T08:09:57;16.0;;;6.8;;
64018;SDS011;66942;52.138;5.216;2023-05-27T08:11:33;15.4;;;6.1;;
64018;SDS011;66942;52.138;5.216;2023-05-27T08:14:46;16.4;;;6.9;;
64018;SDS011;66942;52.138;5.216;2023-05-27T08:16:24;15.6;;;6.5;;
64018;SDS011;66942;52.138;5.216;2023-05-27T08:18:00;14.5;;;6.7;;
64018;SDS011;66942;52.138;5.216;2023-05-27T08:21:12;14.3;;;6.8;;
64018;SDS011;66942;52.138;5.216;2023-05-27T08:22:49;17.3;;;6.9;;
64018;SDS011;66942;52.138;5.216;2023-05-27T08:24:25;13.0;;;6.4;;
64018;SDS011;66942;52.138;5.216;2023-05-27T08:26:01;15.7;;;7.0;;
64018;SDS011;66942;52.138;5.216;2023-05-27T08:29:24;13.6;;;7.1;;
64018;SDS011;66942;52.138;5.216;2023-05-27T08:31:00;14.8;;;6.5;;
64018;SDS011;66942;52.138;5.216;2023-05-27T08:32:37;15.3;;;6.7;;
64018;SDS011;66942;52.138;5.216;2023-05-27T08:35:49;16.3;;;7.1;;
64018;SDS011;66942;52.138;5.216;2023-05-27T08:37:25;13.8;;;6.0;;
64018;SDS011;66942;52.138;5.216;2023-05-27T08:39:01;14.0;;;6.7;;
64018;SDS011;66942;52.138;5.216;2023-05-27T08:42:14;14.8;;;6.7;;
64018;SDS011;66942;52.138;5.216;2023-05-27T08:43:50;17.41;;;6.8;;
64018;SDS011;66942;52.138;5.216;2023-05-27T08:45:27;15.0;;;6.2;;
64018;SDS011;66942;52.138;5.216;2023-05-27T08:47:03;15.4;;;6.8;;
64018;SDS011;66942;52.138;5.216;2023-05-27T08:50:16;16.3;;;6.7;;
64018;SDS011;66942;52.138;5.216;2023-05-27T08:51:52;15.3;;;6.3;;
64018;SDS011;66942;52.138;5.216;2023-05-27T08:53:32;15.3;;;7.0;;
64018;SDS011;66942;52.138;5.216;2023-05-27T08:56:48;16.2;;;6.9;;
64018;SDS011;66942;52.138;5.216;2023-05-27T08:58:28;17.3;;;6.5;;
64018;SDS011;66942;52.138;5.216;2023-05-27T09:00:06;15.7;;;7.3;;
64018;SDS011;66942;52.138;5.216;2023-05-27T09:01:45;16.0;;;6.5;;
64018;SDS011;66942;52.138;5.216;2023-05-27T09:04:57;14.7;;;6.3;;
64018;SDS011;66942;52.138;5.216;2023-05-27T09:06:33;14.5;;;6.4;;
64018;SDS011;66942;52.138;5.216;2023-05-27T09:08:09;12.4;;;6.8;;
64018;SDS011;66942;52.138;5.216;2023-05-27T09:11:31;14.4;;;7.0;;
64018;SDS011;66942;52.138;5.216;2023-05-27T09:13:08;16.11;;;7.0;;
64018;SDS011;66942;52.138;5.216;2023-05-27T09:14:44;13.7;;;6.8;;
64018;SDS011;66942;52.138;5.216;2023-05-27T09:16:20;14.1;;;6.6;;
64018;SDS011;66942;52.138;5.216;2023-05-27T09:19:33;16.61;;;7.1;;
64018;SDS011;66942;52.138;5.216;2023-05-27T09:21:11;15.8;;;7.1;;
64018;SDS011;66942;52.138;5.216;2023-05-27T09:22:47;15.2;;;7.0;;
64018;SDS011;66942;52.138;5.216;2023-05-27T09:26:00;18.91;;;7.7;;
64018;SDS011;66942;52.138;5.216;2023-05-27T09:27:36;16.2;;;6.8;;
64018;SDS011;66942;52.138;5.216;2023-05-27T09:29:13;14.6;;;7.0;;
64018;SDS011;66942;52.138;5.216;2023-05-27T09:32:27;14.0;;;6.6;;
64018;SDS011;66942;52.138;5.216;2023-05-27T09:34:10;13.2;;;6.9;;
64018;SDS011;66942;52.138;5.216;2023-05-27T09:35:46;14.2;;;6.7;;
64018;SDS011;66942;52.138;5.216;2023-05-27T09:37:24;17.91;;;7.6;;
64018;SDS011;66942;52.138;5.216;2023-05-27T09:40:38;13.2;;;6.6;;
64018;SDS011;66942;52.138;5.216;2023-05-27T09:42:14;13.3;;;6.8;;
64018;SDS011;66942;52.138;5.216;2023-05-27T09:43:53;14.3;;;7.1;;
64018;SDS011;66942;52.138;5.216;2023-05-27T09:45:30;15.1;;;7.3;;
64018;SDS011;66942;52.138;5.216;2023-05-27T09:48:44;11.9;;;6.1;;
64018;SDS011;66942;52.138;5.216;2023-05-27T09:50:21;13.5;;;7.3;;
64018;SDS011;66942;52.138;5.216;2023-05-27T09:51:58;12.4;;;6.8;;
64018;SDS011;66942;52.138;5.216;2023-05-27T09:55:13;12.1;;;6.3;;
64018;SDS011;66942;52.138;5.216;2023-05-27T09:56:51;15.1;;;7.0;;
64018;SDS011;66942;52.138;5.216;2023-05-27T09:58:28;11.7;;;6.6;;
64018;SDS011;66942;52.138;5.216;2023-05-27T10:01:43;12.8;;;6.8;;
64018;SDS011;66942;52.138;5.216;2023-05-27T10:03:21;11.7;;;6.4;;
64018;SDS011;66942;52.138;5.216;2023-05-27T10:04:58;13.4;;;7.2;;
64018;SDS011;66942;52.138;5.216;2023-05-27T10:06:36;13.5;;;6.6;;
64018;SDS011;66942;52.138;5.216;2023-05-27T10:09:51;13.7;;;7.3;;
64018;SDS011;66942;52.138;5.216;2023-05-27T10:11:29;13.9;;;6.8;;
64018;SDS011;66942;52.138;5.216;2023-05-27T10:13:07;13.7;;;6.9;;
64018;SDS011;66942;52.138;5.216;2023-05-27T10:16:20;13.4;;;6.5;;
64018;SDS011;66942;52.138;5.216;2023-05-27T10:17:58;12.5;;;6.6;;
64018;SDS011;66942;52.138;5.216;2023-05-27T10:19:55;12.9;;;7.0;;
64018;SDS011;66942;52.138;5.216;2023-05-27T10:21:32;14.4;;;7.6;;
64018;SDS011;66942;52.138;5.216;2023-05-27T10:24:45;16.9;;;7.6;;
64018;SDS011;66942;52.138;5.216;2023-05-27T10:26:31;15.3;;;7.2;;
64018;SDS011;66942;52.138;5.216;2023-05-27T10:28:07;13.1;;;6.7;;
64018;SDS011;66942;52.138;5.216;2023-05-27T10:29:43;13.5;;;6.6;;
64018;SDS011;66942;52.138;5.216;2023-05-27T10:32:56;13.3;;;7.2;;
64018;SDS011;66942;52.138;5.216;2023-05-27T10:34:33;13.4;;;7.1;;
64018;SDS011;66942;52.138;5.216;2023-05-27T10:36:11;14.3;;;7.6;;
64018;SDS011;66942;52.138;5.216;2023-05-27T10:37:49;14.9;;;7.0;;
64018;SDS011;66942;52.138;5.216;2023-05-27T10:41:02;11.5;;;6.6;;
64018;SDS011;66942;52.138;5.216;2023-05-27T10:42:40;11.6;;;6.1;;
64018;SDS011;66942;52.138;5.216;2023-05-27T10:44:24;12.6;;;7.3;;
64018;SDS011;66942;52.138;5.216;2023-05-27T10:47:44;10.0;;;6.6;;
64018;SDS011;66942;52.138;5.216;2023-05-27T10:49:22;11.7;;;6.3;;
64018;SDS011;66942;52.138;5.216;2023-05-27T10:51:01;12.7;;;6.7;;
64018;SDS011;66942;52.138;5.216;2023-05-27T10:52:37;13.1;;;7.4;;
64018;SDS011;66942;52.138;5.216;2023-05-27T10:55:50;13.8;;;6.8;;
64018;SDS011;66942;52.138;5.216;2023-05-27T10:57:26;11.4;;;6.6;;
64018;SDS011;66942;52.138;5.216;2023-05-27T10:59:06;10.7;;;6.3;;
64018;SDS011;66942;52.138;5.216;2023-05-27T11:00:55;9.4;;;6.1;;
64018;SDS011;66942;52.138;5.216;2023-05-27T11:04:08;9.71;;;6.6;;
64018;SDS011;66942;52.138;5.216;2023-05-27T11:05:44;13.1;;;6.6;;
64018;SDS011;66942;52.138;5.216;2023-05-27T11:07:20;13.2;;;6.8;;
64018;SDS011;66942;52.138;5.216;2023-05-27T11:10:33;11.5;;;6.4;;
64018;SDS011;66942;52.138;5.216;2023-05-27T11:12:12;12.7;;;7.0;;
64018;SDS011;66942;52.138;5.216;2023-05-27T11:13:49;10.4;;;6.7;;
64018;SDS011;66942;52.138;5.216;2023-05-27T11:17:01;8.31;;;5.9;;
64018;SDS011;66942;52.138;5.216;2023-05-27T11:18:38;11.8;;;6.7;;
64018;SDS011;66942;52.138;5.216;2023-05-27T11:20:14;11.6;;;5.7;;
64018;SDS011;66942;52.138;5.216;2023-05-27T11:21:51;11.4;;;6.8;;
64018;SDS011;66942;52.138;5.216;2023-05-27T11:25:09;11.3;;;6.8;;
64018;SDS011;66942;52.138;5.216;2023-05-27T11:26:45;13.6;;;7.0;;
64018;SDS011;66942;52.138;5.216;2023-05-27T11:28:22;13.6;;;7.0;;
64018;SDS011;66942;52.138;5.216;2023-05-27T11:31:35;10.5;;;6.5;;
64018;SDS011;66942;52.138;5.216;2023-05-27T11:33:11;13.7;;;7.1;;
64018;SDS011;66942;52.138;5.216;2023-05-27T11:34:47;12.0;;;6.7;;
64018;SDS011;66942;52.138;5.216;2023-05-27T11:36:25;11.2;;;6.7;;
64018;SDS011;66942;52.138;5.216;2023-05-27T11:39:48;9.6;;;6.3;;
64018;SDS011;66942;52.138;5.216;2023-05-27T11:41:27;12.4;;;7.0;;
64018;SDS011;66942;52.138;5.216;2023-05-27T11:43:05;13.2;;;7.0;;
64018;SDS011;66942;52.138;5.216;2023-05-27T11:46:33;11.6;;;6.6;;
64018;SDS011;66942;52.138;5.216;2023-05-27T11:48:09;12.6;;;7.1;;
64018;SDS011;66942;52.138;5.216;2023-05-27T11:49:45;12.0;;;7.1;;
64018;SDS011;66942;52.138;5.216;2023-05-27T11:51:26;12.2;;;6.9;;
64018;SDS011;66942;52.138;5.216;2023-05-27T11:54:39;15.4;;;7.2;;
64018;SDS011;66942;52.138;5.216;2023-05-27T11:56:15;12.6;;;6.9;;
64018;SDS011;66942;52.138;5.216;2023-05-27T11:57:51;13.8;;;7.3;;
64018;SDS011;66942;52.138;5.216;2023-05-27T11:59:27;12.0;;;6.5;;
64018;SDS011;66942;52.138;5.216;2023-05-27T12:02:40;14.1;;;6.8;;
64018;SDS011;66942;52.138;5.216;2023-05-27T12:04:16;12.3;;;6.5;;
64018;SDS011;66942;52.138;5.216;2023-05-27T12:05:53;12.0;;;6.7;;
64018;SDS011;66942;52.138;5.216;2023-05-27T12:09:05;11.9;;;6.6;;
64018;SDS011;66942;52.138;5.216;2023-05-27T12:10:43;11.2;;;6.4;;
64018;SDS011;66942;52.138;5.216;2023-05-27T12:12:19;10.4;;;6.8;;
64018;SDS011;66942;52.138;5.216;2023-05-27T12:15:31;12.8;;;7.2;;
64018;SDS011;66942;52.138;5.216;2023-05-27T12:17:08;12.6;;;7.3;;
64018;SDS011;66942;52.138;5.216;2023-05-27T12:18:44;13.1;;;7.3;;
64018;SDS011;66942;52.138;5.216;2023-05-27T12:20:21;12.6;;;6.7;;
64018;SDS011;66942;52.138;5.216;2023-05-27T12:23:33;12.1;;;6.8;;
64018;SDS011;66942;52.138;5.216;2023-05-27T12:25:09;12.6;;;6.8;;
64018;SDS011;66942;52.138;5.216;2023-05-27T12:26:45;13.3;;;7.3;;
64018;SDS011;66942;52.138;5.216;2023-05-27T12:29:57;13.2;;;7.3;;
64018;SDS011;66942;52.138;5.216;2023-05-27T12:31:34;11.7;;;7.1;;
64018;SDS011;66942;52.138;5.216;2023-05-27T12:33:10;12.9;;;6.9;;
64018;SDS011;66942;52.138;5.216;2023-05-27T12:36:22;14.8;;;7.3;;
64018;SDS011;66942;52.138;5.216;2023-05-27T12:37:59;12.7;;;6.9;;
64018;SDS011;66942;52.138;5.216;2023-05-27T12:39:35;11.0;;;6.4;;
64018;SDS011;66942;52.138;5.216;2023-05-27T12:42:48;13.3;;;6.9;;
64018;SDS011;66942;52.138;5.216;2023-05-27T12:44:24;11.2;;;6.8;;
64018;SDS011;66942;52.138;5.216;2023-05-27T12:46:00;12.4;;;6.4;;